sensor_id;sensor_type;location;lat;lon;timestamp;P1;durP1;ratioP1;P2;durP2;ratioP2
33150;SDS011;19508;42.578;23.416;2023-05-07T00:01:03;14.00;;;6.38;;
33150;SDS011;19508;42.578;23.416;2023-05-07T00:03:30;22.30;;;11.25;;
33150;SDS011;19508;42.578;23.416;2023-05-07T00:05:56;28.77;;;13.75;;
33150;SDS011;19508;42.578;23.416;2023-05-07T00:08:21;64.60;;;27.13;;
33150;SDS011;19508;42.578;23.416;2023-05-07T00:10:47;71.05;;;29.77;;
33150;SDS011;19508;42.578;23.416;2023-05-07T00:13:12;51.25;;;22.98;;
33150;SDS011;19508;42.578;23.416;2023-05-07T00:15:38;12.48;;;6.90;;
33150;SDS011;19508;42.578;23.416;2023-05-07T00:18:03;17.92;;;8.65;;
33150;SDS011;19508;42.578;23.416;2023-05-07T00:20:28;14.30;;;6.65;;
33150;SDS011;19508;42.578;23.416;2023-05-07T00:22:54;9.35;;;6.95;;
33150;SDS011;19508;42.578;23.416;2023-05-07T00:25:19;19.13;;;7.25;;
33150;SDS011;19508;42.578;23.416;2023-05-07T00:27:45;19.75;;;10.25;;
33150;SDS011;19508;42.578;23.416;2023-05-07T00:30:10;22.23;;;10.70;;
33150;SDS011;19508;42.578;23.416;2023-05-07T00:32:36;16.27;;;10.25;;
33150;SDS011;19508;42.578;23.416;2023-05-07T00:35:02;18.58;;;9.40;;
33150;SDS011;19508;42.578;23.416;2023-05-07T00:37:28;15.55;;;7.80;;
33150;SDS011;19508;42.578;23.416;2023-05-07T00:39:53;12.38;;;6.47;;
33150;SDS011;19508;42.578;23.416;2023-05-07T00:42:19;14.20;;;7.53;;
33150;SDS011;19508;42.578;23.416;2023-05-07T00:44:44;15.48;;;7.35;;
33150;SDS011;19508;42.578;23.416;2023-05-07T00:47:10;19.33;;;8.55;;
33150;SDS011;19508;42.578;23.416;2023-05-07T00:49:39;17.88;;;7.15;;
33150;SDS011;19508;42.578;23.416;2023-05-07T00:52:07;13.02;;;6.53;;
33150;SDS011;19508;42.578;23.416;2023-05-07T00:54:36;15.60;;;7.00;;
33150;SDS011;19508;42.578;23.416;2023-05-07T00:57:02;12.93;;;6.60;;
33150;SDS011;19508;42.578;23.416;2023-05-07T00:59:28;13.38;;;6.03;;
33150;SDS011;19508;42.578;23.416;2023-05-07T01:01:55;17.35;;;9.27;;
33150;SDS011;19508;42.578;23.416;2023-05-07T01:04:20;12.50;;;7.68;;
33150;SDS011;19508;42.578;23.416;2023-05-07T01:06:46;10.60;;;6.32;;
33150;SDS011;19508;42.578;23.416;2023-05-07T01:09:12;27.27;;;9.60;;
33150;SDS011;19508;42.578;23.416;2023-05-07T01:11:38;15.65;;;8.00;;
33150;SDS011;19508;42.578;23.416;2023-05-07T01:14:04;15.90;;;8.23;;
33150;SDS011;19508;42.578;23.416;2023-05-07T01:16:31;18.95;;;9.57;;
33150;SDS011;19508;42.578;23.416;2023-05-07T01:18:56;18.20;;;8.70;;
33150;SDS011;19508;42.578;23.416;2023-05-07T01:21:25;19.17;;;9.95;;
33150;SDS011;19508;42.578;23.416;2023-05-07T01:23:52;15.07;;;8.82;;
33150;SDS011;19508;42.578;23.416;2023-05-07T01:26:18;11.98;;;7.22;;
33150;SDS011;19508;42.578;23.416;2023-05-07T01:28:45;13.98;;;9.02;;
33150;SDS011;19508;42.578;23.416;2023-05-07T01:31:10;21.13;;;8.73;;
33150;SDS011;19508;42.578;23.416;2023-05-07T01:33:38;17.33;;;7.00;;
33150;SDS011;19508;42.578;23.416;2023-05-07T01:36:06;13.32;;;6.20;;
33150;SDS011;19508;42.578;23.416;2023-05-07T01:38:34;8.75;;;5.53;;
33150;SDS011;19508;42.578;23.416;2023-05-07T01:41:01;12.90;;;6.13;;
33150;SDS011;19508;42.578;23.416;2023-05-07T01:43:28;10.68;;;6.65;;
33150;SDS011;19508;42.578;23.416;2023-05-07T01:45:55;12.43;;;6.97;;
33150;SDS011;19508;42.578;23.416;2023-05-07T01:48:22;17.15;;;7.68;;
33150;SDS011;19508;42.578;23.416;2023-05-07T01:50:49;11.13;;;7.38;;
33150;SDS011;19508;42.578;23.416;2023-05-07T01:53:15;15.75;;;8.40;;
33150;SDS011;19508;42.578;23.416;2023-05-07T01:55:40;17.80;;;8.45;;
33150;SDS011;19508;42.578;23.416;2023-05-07T01:58:06;19.33;;;8.13;;
33150;SDS011;19508;42.578;23.416;2023-05-07T02:00:31;14.40;;;8.05;;
33150;SDS011;19508;42.578;23.416;2023-05-07T02:02:57;17.77;;;9.10;;
33150;SDS011;19508;42.578;23.416;2023-05-07T02:05:23;33.58;;;16.08;;
